Portada
METAR-TAF:

METAR-TAF

Aeroports :

Andersen, Guam, Estats Units d'Amèrica

latitud: 13-35N, longitud: 144-56E, altitud: 187 m

Observació

L'informe es va fer fa 34 minuts, a les 11:56 UTC
Vent 11 kt del Est/Sud-Est
Temperatura 27°C
Humitat 79%
Pressió 1015 hPa
Visibilitat: 16.1 km
Núvols disperses a una alçada de 1800 ft

METAR: PGUA 251156Z 11011KT 10SM SCT018 27/23 A2998 RMK AO2A SLP143 T02690229 10293 20267 52015 $

Hora: 22:30 (12:30 UTC)

Pronòstic

L'informe es va fer fa 2 hores i 30 minuts, a les 10:00 UTC
Pronòstic vàlid del 25 a les 10 UTC al 26 a les 16 UTC
Vent 9 kt del Est
Visibilitat 10 km o més
Núvols disperses a una alçada de 1500 ft
Temporalment
l' 26 a les 05 UTC al 26 a les 10 UTC
Visibilitat: 8000 m
Cel ennuvolat a una alçada de 1500 ft
xàfecs de pluja, boirina

TAF: PGUA 251000Z 2510/2616 09009KT 9999 SCT015 QNH2987INS TEMPO 2605/2610 8000 -SHRA BR BKN015 TX30/2605Z TN26/2517Z

Observacions i pronòstics meteorològics de més de 4000 aeroports (METAR i TAF).

Les estacions disponibles són els punts grocs i vermells al mapa.

Posi el ratolí al punt desitjat per veure el nom de l'estació.

Feu clic per veure les observacions i els pronòstics meteorològics.

Per canviar el mapa: feu clic els botons verds amb una creu de color negre per apropar; al botó verd amb un guió per allunyar la imatge; o en les fletxes verdes per a mapes adjacents.


METAR-TAF: